Pendleton, Oregon
Current Conditions -  °F | °C
As of 6:53 AM on Monday 24 Nov 2014 (Local Time) from KPDT Reporting Station
Few Clouds Few Clouds  
Wind Chill: 27°   Ceiling: Unl
Heat Index: 34°   Visibility: 10mi
Dew Point: 31°   Wind: 8mph
Humidity: 89%   Direction: 170°S
Pressure: 30.36"   Gusts: NA
Location:  45.67°N, 118.78°W
Report Text: KPDT 241453Z 17007KT 10SM FEW031 01/M01 A3036 RMK AO2 SLP285 T00111006 51007
Loading
Personal Weather Stations






























Interactive Weather Map New forecast layout! Learn more

10-Day Weather Forecast

Advertisements
Track Severe Weather on mobile